Cardiff, Colorado
Current Conditions -  °F | °C
As of 7:18 AM on Saturday 25 Oct 2014 (Local Time) from K5SM Reporting Station
Clear Clear  
Wind Chill: 43°   Ceiling: Unl
Heat Index: 43°   Visibility: 10mi
Dew Point: 18°   Wind: 0mph
Humidity: 36%   Direction: NA
Pressure: 30.56"   Gusts: NA
Location:  39.6119°N, 107.29°W
Report Text: K5SM 251318Z AUTO 00000KT 10SM CLR 06/M08 A3056 RMK AO2
Loading
Personal Weather Stations






























Interactive Weather Map
Tropical Storm Tracking
New forecast layout! Learn more

10-Day Weather Forecast

Advertisements
Track Severe Weather on mobile